BGSFBGBW

Guest
Details From BGSF - Kangerlussuaq
To BGBW - Narsarsuaq
Flight Number -
Tags generated
Created
Modified
Stats Distance 378 nm / 700 km
Max Altitude 31,400 ft / 9,571 m
Waypoints 6
Social Downloads 0
Likes 0
Share VATSIM

Download

Looking for another format? Having issues loading an existing format? Contact us
Advertisement - Login to hide

Notes

Basic altitude profile: - Ascent Rate: 2500ft/min - Ascent Speed: 250kts - Cruise Altitude: 25000ft - Cruise Speed: 420kts - Descent Rate: 1500ft/min - Descent Speed: 250kts Options: - Use NATs: yes - Use PACOTS: yes - Use low airways: yes - Use high airways: yes

Route

BGSF TOLAN W21 NA BGBW

ID Type Via Altitude Latitude Longitude Leg Dist Tot Dist Heading (true) Name
O BGSF APT - 0 ft / 0 m 67.01160˚ -50.71472˚ - 0 nm - Kangerlussuaq
TOLAN FIX - 31,400 ft / 9,571 m 65.60306˚ -49.34861˚ 90 nm 90 nm 158° / 159° -
ASVID FIX W21 (AWY-LO) 19,500 ft / 5,944 m 64.63028˚ -48.37889˚ 63 nm 154 nm 157° / 158° -
NANSI FIX W21 (AWY-LO) 19,500 ft / 5,944 m 63.13528˚ -46.99583˚ 96 nm 251 nm 157° / 158° -
NA NDB W21 (AWY-LO) 11,000 ft / 3,353 m 61.17074˚ -45.41295˚ 126 nm 377 nm 159° / 160° NARSARSUAQ NDB
O BGBW APT - 0 ft / 0 m 61.16052˚ -45.42598˚ 0 nm 377 nm 212° / 212° Narsarsuaq

Altitude Profile

Advertisement - Login to hide

Weather


0- 5 10 15 20 25 30 35+ Temperature / ° C

Clouds and Precipitation
Forecast for 2017-12-17 12:00 UTC. Updated an hour ago

Ground ~20,000 ft ~40,000 ft Winds

BGSF

Details ICAO BGSF (SFJ)
Name Kangerlussuaq
Region Greenland
Timezone America/Godthab (UTC-3.0)
Stats Elevation 165 ft / 50 m (AMSL)
Location 67.011605° -50.714721°
Runways 2
Magnetic Variation 29.032° W

METAR

BGSF 170750Z AUTO 06007KT 8000NDV -SN FEW030/// SCT036/// BKN045/// BKN055/// M06/M07 Q0989

Decode

TAF

TAF AMD BGSF 170127Z 1701/1723 06008KT 9999 SCT020 BKN060 TEMPO 1701/1712 1200 -SN BKN008 BECMG 1712/1715 SCT120 TEMPO 1715/1723 BKN080

Decode

Departure Runways

ID Width Length Bearing (true) Bearing (mag) Surface Threshold Offset Overrun Length
09 197 ft / 60 m 9,169 ft / 2,795 m 61.57° 90.60° Asphalt 0 ft / 0 m 509 ft / 155 m
10 197 ft / 60 m 9,187 ft / 2,800 m 61.55° 90.58° Asphalt 0 ft / 0 m 0 ft / 0 m
27 197 ft / 60 m 9,169 ft / 2,795 m 241.63° 270.66° Asphalt 0 ft / 0 m 171 ft / 52 m
28 197 ft / 60 m 9,187 ft / 2,800 m 241.60° 270.63° Asphalt 0 ft / 0 m 0 ft / 0 m

BGBW

Details ICAO BGBW (UAK)
Name Narsarsuaq
Region Greenland
Timezone America/Godthab (UTC-3.0)
Stats Elevation 112 ft / 34 m (AMSL)
Location 61.160516° -45.425976°
Runways 1
Magnetic Variation 22.903° W

METAR

BGBW 170750Z AUTO 06016KT 9999NDV -SN BKN220/// M04/M12 Q0989

Decode

TAF

Not found

Destination Runways

ID Width Length Bearing (true) Bearing (mag) Surface Threshold Offset Overrun Length
07 148 ft / 45 m 5,921 ft / 1,805 m 40.57° 63.47° Concrete 0 ft / 0 m 0 ft / 0 m
25 148 ft / 45 m 5,921 ft / 1,805 m 220.58° 243.48° Concrete 0 ft / 0 m 279 ft / 85 m

Popular Alternatives